Terminal Aerodrome Forecast
Issued by NWS Shreveport, LA

Home | Current Version | Previous Version | Text Only | Print | Product List | Glossary On
Versions: 1 2 3 4 5 6 7 8 9 10 11 12 13 14 15 16 17
000
FTUS44 KSHV 312331
TAFSHV
TAF
KSHV 312331Z 0100/0124 VRB04KT P6SM FEW045 OVC200
     FM010500 VRB03KT P6SM BKN180 OVC250
     FM010900 VRB03KT P6SM SCT040 BKN180 OVC250
     FM011400 17004KT P6SM SCT015 BKN150 BKN250
     FM011600 17006KT P6SM SCT030 BKN150 BKN250
     FM011800 18006KT P6SM SCT045 SCT150 BKN250=

USA.gov is the U.S. government's official web portal to all federal, state and local government web resources and services.